Saturday, July 02, 2016
03:52 UTC
  |  Log In   |  Register Free
Airport Search:

Alpena County Regional Airport
(KAPN)

FAA data valid effective May 26 2016 - Jul 21 2016 (unless otherwise noted).

 
 
 
 
 
 
 
 
 
 
 
 
 
 
Current Aviation Weather for KAPN

Weather Summary


The most recent METAR observation for APN was updated at: 12:54 UTC
METAR for KAPN is not available. Closest METAR is for KPZQ
KAPN  (most recent observation was updatred at 20:25 UTC)
020254Z AUTO 27003KT 10SM CLR 13/08 A3006 RMK AO2 SLP179 T01330078 53014

KPZQ  (22.5 nm SE)   (most recent observation was updated at 20:33 UTC)
020335Z AUTO 24005KT 10SM CLR 12/07 A3006 RMK AO2 T01210068

TAF for KAPN is not available.
KAPN
012320Z 0200/0224 32011G18KT P6SM SKC FM020100 29006KT P6SM SKC FM021500 31011G18KT P6SM SCT060 FM022300 33009KT P6SM SKC

GlobalAir.com is loading additional information.
 Current Weather at APN
59.0 F° (15.0 C°)

North winds at 0.0 mph
Pressure:
30.04 in
Humidity:
62%
Wind:
North at 0.0 mph
Dew Point:
46.0 F° (7.8 C°)
Visibility:
10.00 mi
APN NOAA Radar




Find All Airport Services Find A Hotel Find A Rental Car Find A Golf Course Find A Restaurant $100 Hamburger



Airport Weather Forecast for KAPN

Translated METAR for KAPN (0254 UTC)
METAR:
KAPN 020254Z AUTO 27003KT 10SM CLR 13/08 A3006 RMK AO2 SLP179 T01330078 53014
Conditions at:
KAPN (Alpena County Rgnl, MI) observed 0254 UTC 01 July 2016
Temperature:
13°C (55.4°F)
Dewpoint:
8°C (46.4°F) [RH = 71.7]
Pressure:
30.06 inches Hg (1017.9 mb)
pressure at sea level is 179 in Hg
Winds:
from the W (270 degrees) at 3.5 mph (3 knots: 1.5 m/s)
Visibility:
10 mile(s)
Ceiling:
at least 12,000 feet AGL
Clouds:
Clear below 12,000 feet AGL
Remarks:
site is un-manned
site is automated and HAS a precipitation sensor

Translated TAF for KAPN (Alpena County Rgnl, MI) (2320 UTC)
TAF text:
KAPN 012320Z 0200/0224 32011G18KT P6SM SKC
Forecast period:
Saturday Jul 02 2016 00:00 UTC - Saturday Jul 02 2016 24:00 UTC
Forecast type:
FROM: standard forecast or significant change
Winds:
from the NW (320 degrees) at 12.7 mph (11 knots: 5.7 m/s)
gusting to 20.7 mph (18 knots: 9.3 m/s)
Visibility:
6 or more mile(s) (9.7+ km)
Ceiling:
at least 12,000 feet AGL
Clouds:
Clear Skies
Weather:
no significant weather observed at this time
TAF text:
FM020100 29006KT P6SM SKC
Forecast period:
Saturday Jul 02 2016 01:00 UTC - Saturday Jul 02 2016 15:00 UTC
Forecast type:
FROM: standard forecast or significant change
Winds:
from the WNW (290 degrees) at 6.9 mph (6 knots: 3.1 m/s)
Visibility:
6 or more mile(s) (9.7+ km)
Ceiling:
at least 12,000 feet AGL
Clouds:
Clear Skies
Weather:
no significant weather observed at this time
TAF text:
FM021500 31011G18KT P6SM SCT060
Forecast period:
Saturday Jul 02 2016 15:00 UTC - Saturday Jul 02 2016 23:00 UTC
Forecast type:
FROM: standard forecast or significant change
Winds:
from the NW (310 degrees) at 12.7 mph (11 knots: 5.7 m/s)
gusting to 20.7 mph (18 knots: 9.3 m/s)
Visibility:
6 or more mile(s) (9.7+ km)
Ceiling:
at least 12,000 feet AGL
Clouds:
Scattered Clouds at 6,000 feet AGL
Weather:
no significant weather observed at this time
TAF text:
FM022300 33009KT P6SM SKC
Forecast period:
Saturday Jul 02 2016 23:00 UTC - Saturday Jul 02 2016 24:00 UTC
Forecast type:
FROM: standard forecast or significant change
Winds:
from the NNW (330 degrees) at 10.4 mph (9 knots: 4.6 m/s)
Visibility:
6 or more mile(s) (9.7+ km)
Ceiling:
at least 12,000 feet AGL
Clouds:
Clear Skies
Weather:
no significant weather observed at this time
FBO's on the Field
FBO Company Facility Photos Services Transportation Aviation Fuel Prices: Prices include tax
Catering Weather Repair Courtesy Rental Type 100LL JetA JetA+ MOGAS 8087
 
Aviation Express Inc.

Currently rated 5 by 1 person
FS:Shell
Last Updated: May-26
Login to update fuel prices
SS:
Contact Aviation Express Inc.More FBO Information
 
Aviation North

This FBO has not yet been rated
FS:Avfuel
Last Updated: Jun-07
Login to update fuel prices
SS:
Contact Aviation NorthMore FBO Information
 
Add another FBO Facility Photos Catering Weather Repair Courtesy Rental Type 100LL JetA JetA+ MOGAS 8087
Services Transportation Aviation Fuel Prices: Prices include tax


model-print
model-print
model-print
model-print